Toivola, MI

11:38 AM EST on February 10, 2016 (GMT -0500)
MesoWest | | Change Station
CLOSE
Current Station
Personal Weather Station
Location: Toivola, MI
Elevation: 1189 ft
Nearby Weather Stations
Active Advisory: Lake Effect Snow Advisory Active Notice: Local Storm Report

Elev 1189 ft 46.88 °N, 88.86 °W | Updated 58 minutes ago

Overcast
Overcast
6 °F
Feels Like 6 °F
N
3
Wind Variable Wind from NNW
Gusts 11.0 mph

Today
High -- | Low -- °F
--% Chance of Precip.
Yesterday
High -- | Low -- °F
Precip. -- in
Pressure 30.00 in
Visibility 1.2 miles
Clouds Overcast 2400 ft
Windchill 6 °F
Dew Point 2 °F
Humidity 84%
Rainfall in
Snow Depth Not available.
8:08 AM 6:11 PM
Waxing Crescent, 6% visible
SPECI KCMX 101614Z AUTO 35012G20KT 1 1/4SM -SN OVC024 M15/M19 A3000 RMK AO2 P0000 T11501194 TSNO
Pressure 30.00 in
Visibility 1.2 miles
Clouds Overcast 2400 ft
Windchill 6 °F
Dew Point 2 °F
Humidity 84%
Rainfall in
Snow Depth Not available.
8:08 AM 6:11 PM
Waxing Crescent, 6% visible
SPECI KCMX 101614Z AUTO 35012G20KT 1 1/4SM -SN OVC024 M15/M19 A3000 RMK AO2 P0000 T11501194 TSNO

10-Day Weather Forecast

Almanac

Astronomy

Feb. 10, 2016 Rise Set
Actual Time
Civil Twilight
Nautical Twilight
Astronomical Twilight
Moon
Length of Visible Light
Length of Day
Tomorrow will be .
, % of the Moon is Illuminated

Today's Extremes

State Highs State Lows

Community

WunderPhotos

Upload Photos

1,891,881 photos uploaded!

WunderBlog® & News

Nearby

Air Quality

  Air Quality AQ Index Pollutant
Not available.

Snow Depth

Station Depth Elevation

Earthquake Activity

City Distance Mag. Time & Date
Minimum magnitude displayed is 2.5.

Coastal Water Temperatures

Place Temperature

Stations

Nearby Weather Stations

Station Location Temp. Windchill Dew Point Humidity Wind Precip. Elev Updated Type
                   

Watches & Warnings

Lake Effect Snow Advisory
Issued: 10:48 AM EST Feb. 10, 2016 – National Weather Service

... Lake effect Snow Advisory remains in effect until 7 PM EST
this evening...

Hazardous weather...

* moderate lake effect snow showers will continue through this
   afternoon before diminishing late.

* Expect additional snow accumulations of 1 to 3 inches through
   this afternoon... with the greatest amounts in the higher terrain
   from Twin Lakes to Calumet and Delaware.

* Expect areas of blowing snow with sharply reduced visibility
   through this afternoon... especially along Lake Superior.

Impacts...

* roads will be snow covered and slippery.

Precautionary/preparedness actions...

* a lake effect Snow Advisory Means Lake effect snow is
   forecast that will make travel difficult in some areas.

* Prepare... plan... and stay informed. Visit www.Weather.Gov/MQT



07